createdAt,value
2019-02-15T00:08:47.266Z,-1.50
2019-02-15T00:38:48.618Z,-1.90
2019-02-15T01:09:01.009Z,-1.90
2019-02-15T01:39:19.181Z,-2.40
2019-02-15T02:09:21.186Z,-2.30
2019-02-15T02:39:22.615Z,-2.50
2019-02-15T03:09:23.956Z,-2.50
2019-02-15T03:39:27.216Z,-3.00
2019-02-15T04:09:28.534Z,-2.90
2019-02-15T04:39:30.000Z,-2.70
2019-02-15T05:09:31.289Z,-3.50
2019-02-15T05:39:32.637Z,-3.20
2019-02-15T06:09:33.973Z,-3.10
2019-02-15T06:39:35.302Z,-3.60
2019-02-15T07:09:36.632Z,-2.50
2019-02-15T07:31:32.851Z,-1.60
2019-02-15T07:41:34.360Z,-0.30
2019-02-15T07:51:35.799Z,-0.10
2019-02-15T08:01:37.298Z,0.70
2019-02-15T08:11:38.762Z,1.50
2019-02-15T08:21:40.202Z,2.10
2019-02-15T08:31:41.676Z,2.20
2019-02-15T08:42:00.704Z,2.90
2019-02-15T08:51:47.632Z,3.90
2019-02-15T09:01:51.000Z,5.00
2019-02-15T09:11:52.489Z,5.50
2019-02-15T09:21:53.948Z,6.50
2019-02-15T09:31:55.435Z,6.90
2019-02-15T09:41:56.966Z,7.60
2019-02-15T09:51:58.428Z,7.80
2019-02-15T10:02:00.023Z,8.80
2019-02-15T10:12:01.521Z,8.70
2019-02-15T10:22:03.047Z,9.10
2019-02-15T10:32:04.486Z,10.40
2019-02-15T10:42:06.300Z,9.50
2019-02-15T10:52:07.819Z,10.80
2019-02-15T11:02:09.273Z,11.60
2019-02-15T11:12:10.718Z,11.70
2019-02-15T11:22:12.235Z,12.50
2019-02-15T11:32:13.696Z,12.90
2019-02-15T11:42:15.183Z,12.60
2019-02-15T11:52:16.699Z,13.30
2019-02-15T12:02:18.159Z,12.40
2019-02-15T12:12:19.608Z,12.30
2019-02-15T12:22:21.062Z,12.20
2019-02-15T12:32:22.544Z,12.20
2019-02-15T12:42:24.000Z,12.10
2019-02-15T12:52:25.574Z,12.30
2019-02-15T13:02:27.092Z,12.00
2019-02-15T13:12:28.576Z,12.10
2019-02-15T13:22:30.136Z,12.60
2019-02-15T13:32:31.632Z,12.60
2019-02-15T13:42:33.223Z,12.40
2019-02-15T13:52:34.684Z,12.30
2019-02-15T14:02:36.204Z,12.30
2019-02-15T14:12:38.202Z,12.10
2019-02-15T14:22:39.708Z,12.00
2019-02-15T14:32:41.232Z,12.40
2019-02-15T14:42:42.728Z,12.10
2019-02-15T14:52:44.239Z,11.90
2019-02-15T15:02:45.692Z,11.80
2019-02-15T15:12:47.188Z,11.50
2019-02-15T15:22:48.656Z,11.40
2019-02-15T15:32:50.131Z,10.50
2019-02-15T15:42:51.577Z,9.40
2019-02-15T15:52:53.125Z,8.50
2019-02-15T16:02:54.596Z,7.00
2019-02-15T16:12:58.074Z,6.50
2019-02-15T16:22:59.567Z,5.30
2019-02-15T16:33:00.993Z,5.00
2019-02-15T16:43:02.564Z,4.20
2019-02-15T16:53:04.098Z,4.30
2019-02-15T17:03:05.676Z,3.60
2019-02-15T17:13:07.133Z,2.60
2019-02-15T17:23:08.608Z,2.80
2019-02-15T17:33:10.064Z,2.00
2019-02-15T17:43:11.608Z,1.10
2019-02-15T17:53:13.128Z,1.00
2019-02-15T18:03:14.631Z,1.20
2019-02-15T18:13:16.191Z,1.20
2019-02-15T18:23:17.687Z,1.10
2019-02-15T18:33:19.197Z,1.10
2019-02-15T18:43:20.756Z,1.20
2019-02-15T18:53:22.249Z,1.40
2019-02-15T19:03:24.031Z,1.00
2019-02-15T19:13:25.564Z,0.10
2019-02-15T19:23:27.035Z,0.30
2019-02-15T19:33:28.583Z,-0.10
2019-02-15T19:43:30.047Z,-0.20
2019-02-15T19:53:31.526Z,-1.00
2019-02-15T20:03:33.227Z,-0.70
2019-02-15T20:13:34.682Z,-0.80
2019-02-15T20:23:36.220Z,-0.90
2019-02-15T20:33:37.700Z,-0.90
2019-02-15T20:43:39.199Z,-0.80
2019-02-15T20:53:40.694Z,-0.90
2019-02-15T21:03:43.508Z,-0.80
2019-02-15T21:13:45.052Z,-0.80
2019-02-15T21:23:46.550Z,-1.60
2019-02-15T21:33:48.075Z,-1.30
2019-02-15T21:43:49.514Z,-1.30
2019-02-15T21:53:51.017Z,-1.20
2019-02-15T22:03:52.525Z,-1.40
2019-02-15T22:13:53.998Z,-1.30
2019-02-15T22:23:55.456Z,-1.00
2019-02-15T22:33:56.976Z,-1.30
2019-02-15T22:43:58.441Z,-1.70
2019-02-15T22:53:59.907Z,-1.70
2019-02-15T23:04:01.354Z,-1.50
2019-02-15T23:14:02.919Z,-1.60
2019-02-15T23:24:04.526Z,-1.40
2019-02-15T23:34:05.952Z,-1.50
2019-02-15T23:44:07.552Z,-1.30
2019-02-15T23:54:09.168Z,-1.60
